Terminal Aerodrome Forecast
Issued by NWS

Home | Current Version | Previous Version | Text Only | Print | Product List | Glossary On
Versions: 1 2 3 4 5 6 7 8 9 10 11 12
000
FTUS44 KEPZ 201120
TAFTCS
TAF
KTCS 201120Z 2012/2112 01012KT P6SM SKC
     FM202000 18015G25KT P6SM FEW100 FEW250
     FM210400 18007KT P6SM FEW250=

USA.gov is the U.S. government's official web portal to all federal, state and local government web resources and services.